Time;durP1;ratioP1;P1;durP2;ratioP2;P2;SDS_P1;SDS_P2;PMS_P1;PMS_P2;Temp;Humidity;BMP_temperature;BMP_pressure;BME280_temperature;BME280_humidity;BME280_pressure;Samples;Min_cycle;Max_cycle;Signal;HPM_P1;HPM_P2
2022/01/16 00:05:10;;;;;;;;;;;20.00;38.80;;;;;;6284232;28;19920;-42
2022/01/16 00:08:12;;;;;;;;;;;20.10;38.90;;;;;;6306831;28;19928;-44
2022/01/16 00:11:14;;;;;;;;;;;20.40;39.00;;;;;;6310667;28;19928;-46
2022/01/16 00:14:15;;;;;;;;;;;20.40;39.00;;;;;;6301565;28;19923;-45
2022/01/16 00:17:19;;;;;;;;;;;20.10;38.40;;;;;;6297003;28;19927;-42
2022/01/16 00:20:21;;;;;;;;;;;20.50;39.00;;;;;;6303753;28;20697;-44
2022/01/16 00:23:24;;;;;;;;;;;20.20;38.80;;;;;;6305320;28;19970;-45
2022/01/16 00:26:26;;;;;;;;;;;20.10;38.80;;;;;;6307422;28;20063;-44
2022/01/16 00:29:31;;;;;;;;;;;20.10;38.80;;;;;;6307767;28;20065;-42
2022/01/16 00:32:32;;;;;;;;;;;20.20;38.90;;;;;;6308299;28;19923;-45
2022/01/16 00:35:33;;;;;;;;;;;20.10;38.70;;;;;;6306648;28;19966;-44
2022/01/16 00:38:35;;;;;;;;;;;20.10;38.90;;;;;;6303093;28;19972;-45
2022/01/16 00:41:37;;;;;;;;;;;20.90;39.20;;;;;;6305840;28;20736;-45
2022/01/16 00:44:38;;;;;;;;;;;20.70;39.10;;;;;;6307201;28;19996;-43
2022/01/16 00:47:40;;;;;;;;;;;20.60;39.00;;;;;;6304588;28;20057;-43
2022/01/16 00:50:41;;;;;;;;;;;20.20;38.90;;;;;;6304971;27;20035;-46
2022/01/16 00:53:43;;;;;;;;;;;20.10;38.70;;;;;;6304572;28;20042;-48
2022/01/16 00:56:45;;;;;;;;;;;20.10;38.70;;;;;;6307428;28;19976;-43
2022/01/16 00:59:48;;;;;;;;;;;20.10;38.70;;;;;;6310622;28;19969;-43
2022/01/16 01:02:53;;;;;;;;;;;20.20;38.80;;;;;;6303937;28;20681;-43
2022/01/16 01:05:54;;;;;;;;;;;20.10;38.90;;;;;;6311409;28;20033;-45
2022/01/16 01:08:55;;;;;;;;;;;20.30;38.80;;;;;;6309390;28;20432;-45
2022/01/16 01:11:57;;;;;;;;;;;20.10;38.80;;;;;;6307720;28;19940;-44
2022/01/16 01:15:07;;;;;;;;;;;20.20;38.70;;;;;;6314834;28;19923;-47
2022/01/16 01:18:09;;;;;;;;;;;21.00;39.10;;;;;;6313186;28;21212;-42
2022/01/16 01:21:16;;;;;;;;;;;20.30;38.90;;;;;;6314302;28;20238;-42
2022/01/16 01:24:18;;;;;;;;;;;20.20;38.80;;;;;;6315531;28;19930;-44
2022/01/16 01:27:23;;;;;;;;;;;20.50;38.90;;;;;;6294923;28;19938;-45
2022/01/16 01:30:25;;;;;;;;;;;20.20;38.80;;;;;;6310334;28;20767;-44
2022/01/16 01:33:27;;;;;;;;;;;20.30;38.80;;;;;;6317900;28;20746;-44
2022/01/16 01:36:28;;;;;;;;;;;20.20;38.70;;;;;;6298243;28;20709;-44
2022/01/16 01:39:30;;;;;;;;;;;20.20;38.80;;;;;;6316215;28;20038;-42
2022/01/16 01:42:35;;;;;;;;;;;20.30;38.90;;;;;;6312504;28;19934;-43
2022/01/16 01:52:06;;;;;;;;;;;20.20;38.60;;;;;;6312313;28;20019;-45
2022/01/16 01:55:08;;;;;;;;;;;20.30;38.80;;;;;;6314907;28;19924;-43
2022/01/16 01:58:10;;;;;;;;;;;20.20;38.60;;;;;;6317649;28;20764;-43
2022/01/16 02:01:12;;;;;;;;;;;20.30;38.70;;;;;;6316433;28;20641;-46
2022/01/16 02:04:14;;;;;;;;;;;20.20;38.10;;;;;;6312563;28;19928;-45
2022/01/16 02:07:15;;;;;;;;;;;20.20;38.70;;;;;;6312767;28;20038;-43
2022/01/16 02:10:16;;;;;;;;;;;20.20;38.80;;;;;;6313932;28;20045;-45
2022/01/16 02:13:24;;;;;;;;;;;20.30;38.80;;;;;;6320336;28;20034;-43
2022/01/16 02:32:59;;;;;;;;;;;20.30;38.60;;;;;;6297564;28;19974;-44
2022/01/16 02:36:01;;;;;;;;;;;20.30;38.70;;;;;;6305075;28;19924;-44
2022/01/16 02:39:07;;;;;;;;;;;20.30;39.20;;;;;;6314931;28;20026;-43
2022/01/16 02:42:10;;;;;;;;;;;20.40;38.60;;;;;;6310431;28;19927;-45
2022/01/16 02:45:17;;;;;;;;;;;20.30;38.60;;;;;;6314249;28;20768;-46
2022/01/16 02:48:18;;;;;;;;;;;20.30;38.60;;;;;;6307748;28;20257;-42
2022/01/16 02:51:20;;;;;;;;;;;21.00;38.90;;;;;;6307903;28;19928;-43
2022/01/16 02:54:22;;;;;;;;;;;20.10;38.50;;;;;;6288984;28;20055;-43
2022/01/16 02:57:24;;;;;;;;;;;20.30;38.60;;;;;;6303620;28;20316;-44
2022/01/16 03:00:25;;;;;;;;;;;20.60;38.90;;;;;;6307339;28;20695;-43
2022/01/16 03:03:26;;;;;;;;;;;20.20;38.70;;;;;;6307575;28;20427;-43
2022/01/16 03:06:28;;;;;;;;;;;20.70;38.90;;;;;;6309312;28;20373;-43
2022/01/16 03:09:47;;;;;;;;;;;20.30;38.50;;;;;;6288147;28;20206;-43
2022/01/16 03:12:49;;;;;;;;;;;20.20;38.50;;;;;;6306617;28;20368;-44
2022/01/16 03:15:52;;;;;;;;;;;20.20;38.50;;;;;;6308556;28;20459;-43
2022/01/16 03:22:09;;;;;;;;;;;20.70;38.70;;;;;;6306216;28;20588;-43
2022/01/16 03:25:11;;;;;;;;;;;20.40;38.70;;;;;;6309927;28;19927;-45
2022/01/16 03:28:13;;;;;;;;;;;20.10;38.40;;;;;;6300099;28;19992;-44
2022/01/16 03:31:14;;;;;;;;;;;20.50;38.60;;;;;;6305115;28;20426;-44
2022/01/16 03:34:15;;;;;;;;;;;20.40;38.70;;;;;;6312572;28;19924;-43
2022/01/16 03:37:17;;;;;;;;;;;20.70;38.80;;;;;;6294584;28;20026;-45
2022/01/16 03:40:21;;;;;;;;;;;20.40;38.60;;;;;;6303446;28;19923;-42
2022/01/16 03:43:22;;;;;;;;;;;20.40;38.60;;;;;;6302897;28;19923;-43
2022/01/16 03:46:24;;;;;;;;;;;20.50;38.70;;;;;;6305420;28;19927;-43
2022/01/16 03:49:27;;;;;;;;;;;20.30;38.50;;;;;;6299612;28;19954;-44
2022/01/16 03:52:28;;;;;;;;;;;20.70;38.20;;;;;;6312014;28;20448;-45
2022/01/16 03:55:30;;;;;;;;;;;20.60;38.80;;;;;;6309408;28;19924;-43
2022/01/16 03:58:31;;;;;;;;;;;20.30;38.50;;;;;;6287274;28;19955;-43
2022/01/16 04:01:33;;;;;;;;;;;20.30;38.60;;;;;;6306485;28;20014;-43
2022/01/16 04:04:34;;;;;;;;;;;20.30;38.60;;;;;;6305607;28;20548;-43
2022/01/16 04:07:36;;;;;;;;;;;20.70;38.70;;;;;;6305171;28;19974;-43
2022/01/16 04:10:38;;;;;;;;;;;20.40;38.60;;;;;;6304809;28;19963;-44
2022/01/16 04:13:47;;;;;;;;;;;20.60;38.70;;;;;;6307149;28;19955;-43
2022/01/16 04:16:49;;;;;;;;;;;20.50;38.60;;;;;;6311095;28;20394;-44
2022/01/16 04:19:51;;;;;;;;;;;20.60;38.60;;;;;;6310888;28;19931;-43
2022/01/16 04:22:53;;;;;;;;;;;20.90;38.70;;;;;;6304303;28;19923;-44
2022/01/16 04:25:55;;;;;;;;;;;20.80;38.70;;;;;;6307460;28;20010;-43
2022/01/16 04:28:56;;;;;;;;;;;20.60;38.60;;;;;;6314235;28;19923;-44
2022/01/16 04:31:57;;;;;;;;;;;20.60;38.70;;;;;;6310953;28;19961;-43
2022/01/16 04:34:58;;;;;;;;;;;20.40;38.60;;;;;;6311909;28;19927;-43
2022/01/16 04:38:00;;;;;;;;;;;20.70;38.80;;;;;;6304219;28;20547;-43
2022/01/16 04:44:19;;;;;;;;;;;20.70;38.70;;;;;;6305595;28;20415;-43
2022/01/16 04:47:21;;;;;;;;;;;20.30;38.50;;;;;;6312351;28;19971;-43
2022/01/16 04:50:25;;;;;;;;;;;20.70;38.80;;;;;;6317373;28;19923;-44
2022/01/16 04:53:26;;;;;;;;;;;20.80;38.20;;;;;;6311995;28;20038;-43
2022/01/16 04:56:28;;;;;;;;;;;20.70;38.70;;;;;;6308977;28;19927;-43
2022/01/16 04:59:29;;;;;;;;;;;20.70;38.60;;;;;;6305971;28;20243;-43
2022/01/16 05:02:30;;;;;;;;;;;20.80;38.70;;;;;;6299947;28;20496;-43
2022/01/16 05:05:32;;;;;;;;;;;20.70;38.80;;;;;;6307052;28;20068;-43
2022/01/16 05:08:35;;;;;;;;;;;20.80;38.20;;;;;;6310675;28;20038;-43
2022/01/16 05:11:38;;;;;;;;;;;20.40;38.50;;;;;;6311164;28;20214;-43
2022/01/16 05:17:55;;;;;;;;;;;20.30;38.40;;;;;;6306624;28;20250;-43
2022/01/16 05:20:56;;;;;;;;;;;20.60;38.40;;;;;;6306731;28;20508;-44
2022/01/16 05:23:58;;;;;;;;;;;20.90;38.80;;;;;;6302691;28;19924;-43
2022/01/16 05:26:59;;;;;;;;;;;20.40;38.50;;;;;;6306984;28;19979;-44
2022/01/16 05:30:01;;;;;;;;;;;20.90;38.80;;;;;;6304971;28;19931;-43
2022/01/16 05:33:02;;;;;;;;;;;20.70;38.70;;;;;;6312218;28;20819;-44
2022/01/16 05:36:04;;;;;;;;;;;20.80;38.70;;;;;;6293933;28;20038;-43
2022/01/16 05:39:06;;;;;;;;;;;20.50;38.50;;;;;;6302845;28;20298;-43
2022/01/16 05:42:10;;;;;;;;;;;20.80;38.80;;;;;;6304855;28;19946;-43
2022/01/16 05:45:12;;;;;;;;;;;20.80;38.70;;;;;;6303568;28;20381;-44
2022/01/16 05:48:14;;;;;;;;;;;20.70;38.70;;;;;;6304063;28;19966;-43
2022/01/16 05:51:15;;;;;;;;;;;20.80;39.30;;;;;;6303809;28;20385;-43
2022/01/16 05:54:16;;;;;;;;;;;20.80;38.60;;;;;;6304370;28;20236;-43
2022/01/16 05:57:18;;;;;;;;;;;20.50;38.70;;;;;;6310131;28;19985;-44
2022/01/16 06:00:19;;;;;;;;;;;20.80;38.70;;;;;;6303605;28;20209;-43
2022/01/16 06:03:21;;;;;;;;;;;20.70;38.80;;;;;;6304144;28;20332;-42
2022/01/16 06:06:22;;;;;;;;;;;20.30;38.50;;;;;;6305680;28;19981;-43
2022/01/16 06:09:26;;;;;;;;;;;20.90;38.80;;;;;;6309136;28;19987;-43
2022/01/16 06:12:28;;;;;;;;;;;20.50;38.50;;;;;;6309027;28;20553;-45
2022/01/16 06:15:29;;;;;;;;;;;20.60;38.60;;;;;;6296623;28;20026;-43
2022/01/16 06:18:30;;;;;;;;;;;20.30;38.50;;;;;;6306506;28;19964;-43
2022/01/16 06:21:32;;;;;;;;;;;20.90;38.50;;;;;;6303269;28;20172;-44
2022/01/16 06:24:33;;;;;;;;;;;20.90;38.70;;;;;;6303363;28;19924;-43
2022/01/16 06:27:35;;;;;;;;;;;20.90;38.70;;;;;;6289489;28;19950;-45
2022/01/16 06:30:36;;;;;;;;;;;20.60;38.60;;;;;;6305737;28;19974;-43
2022/01/16 06:33:38;;;;;;;;;;;20.90;38.80;;;;;;6297961;28;20268;-43
2022/01/16 06:36:40;;;;;;;;;;;20.40;38.50;;;;;;6307502;28;20065;-44
2022/01/16 06:39:41;;;;;;;;;;;20.80;38.70;;;;;;6307903;28;20046;-43
2022/01/16 06:42:43;;;;;;;;;;;20.50;38.50;;;;;;6304387;28;20762;-43
2022/01/16 06:45:44;;;;;;;;;;;20.50;38.60;;;;;;6303778;28;19927;-43
2022/01/16 06:48:46;;;;;;;;;;;20.70;38.80;;;;;;6298394;28;20089;-43
2022/01/16 06:51:47;;;;;;;;;;;20.70;38.70;;;;;;6303757;28;19952;-44
2022/01/16 06:54:48;;;;;;;;;;;20.90;38.30;;;;;;6299725;28;20004;-43
2022/01/16 06:57:51;;;;;;;;;;;20.90;38.80;;;;;;6299880;28;20465;-43
2022/01/16 07:00:52;;;;;;;;;;;20.40;38.50;;;;;;6289867;28;20675;-43
2022/01/16 07:03:54;;;;;;;;;;;20.80;38.80;;;;;;6282633;28;19946;-43
2022/01/16 07:06:55;;;;;;;;;;;20.60;38.60;;;;;;6289228;28;20226;-43
2022/01/16 07:09:57;;;;;;;;;;;20.80;38.70;;;;;;6288235;28;19923;-44
2022/01/16 07:12:59;;;;;;;;;;;20.40;38.40;;;;;;6286039;28;19923;-43
2022/01/16 07:16:00;;;;;;;;;;;20.90;38.70;;;;;;6262321;28;20049;-43
2022/01/16 07:19:02;;;;;;;;;;;20.60;38.60;;;;;;6264002;28;19939;-43
2022/01/16 07:22:05;;;;;;;;;;;20.90;38.70;;;;;;6278361;28;20115;-43
2022/01/16 07:25:07;;;;;;;;;;;20.90;38.60;;;;;;6285118;28;19923;-42
2022/01/16 07:28:09;;;;;;;;;;;20.80;38.70;;;;;;6282377;28;20358;-43
2022/01/16 07:31:10;;;;;;;;;;;20.50;38.50;;;;;;6278365;28;20016;-43
2022/01/16 07:34:11;;;;;;;;;;;20.90;38.80;;;;;;6282086;28;20632;-43
2022/01/16 07:37:13;;;;;;;;;;;20.50;38.60;;;;;;6283599;28;20500;-43
2022/01/16 07:40:15;;;;;;;;;;;20.70;38.70;;;;;;6284526;28;20189;-43
2022/01/16 07:43:17;;;;;;;;;;;20.60;38.50;;;;;;6285051;28;19932;-43
2022/01/16 07:46:18;;;;;;;;;;;20.60;38.70;;;;;;6285655;28;20115;-46
2022/01/16 07:49:19;;;;;;;;;;;20.60;38.60;;;;;;6279151;28;20381;-43
2022/01/16 07:52:21;;;;;;;;;;;21.00;38.70;;;;;;6279067;28;20296;-44
2022/01/16 07:55:25;;;;;;;;;;;20.90;38.60;;;;;;6286155;28;19931;-42
2022/01/16 07:58:27;;;;;;;;;;;21.10;38.90;;;;;;6278547;28;20660;-43
2022/01/16 08:01:28;;;;;;;;;;;20.60;38.60;;;;;;6282532;28;19928;-43
2022/01/16 08:04:30;;;;;;;;;;;20.50;38.60;;;;;;6287306;28;20390;-43
2022/01/16 08:07:31;;;;;;;;;;;20.80;38.70;;;;;;6289331;28;20155;-43
2022/01/16 08:10:33;;;;;;;;;;;20.90;38.20;;;;;;6282991;28;20476;-43
2022/01/16 08:13:35;;;;;;;;;;;21.00;38.70;;;;;;6284456;28;20280;-43
2022/01/16 08:16:36;;;;;;;;;;;20.70;38.60;;;;;;6282819;28;20160;-43
2022/01/16 08:19:38;;;;;;;;;;;20.50;38.50;;;;;;6291481;28;20639;-43
2022/01/16 08:22:39;;;;;;;;;;;20.90;38.50;;;;;;6291833;28;20711;-43
2022/01/16 08:25:41;;;;;;;;;;;20.90;38.50;;;;;;6284877;28;20022;-43
2022/01/16 08:28:43;;;;;;;;;;;20.90;38.70;;;;;;6289615;28;19934;-43
2022/01/16 08:31:44;;;;;;;;;;;20.50;38.50;;;;;;6287077;28;20356;-43
2022/01/16 08:34:46;;;;;;;;;;;20.90;38.60;;;;;;6291919;28;20754;-43
2022/01/16 08:37:48;;;;;;;;;;;21.00;38.70;;;;;;6289525;28;20199;-44
2022/01/16 08:40:51;;;;;;;;;;;20.90;38.70;;;;;;6288468;28;19923;-43
2022/01/16 08:43:53;;;;;;;;;;;20.90;38.70;;;;;;6285914;28;20022;-43
2022/01/16 08:46:55;;;;;;;;;;;21.30;38.90;;;;;;6289822;28;19971;-43
2022/01/16 08:49:58;;;;;;;;;;;20.80;38.70;;;;;;6283016;28;19935;-45
2022/01/16 08:52:59;;;;;;;;;;;20.50;38.40;;;;;;6286610;28;20307;-43
2022/01/16 08:56:01;;;;;;;;;;;20.80;38.60;;;;;;6288410;28;20574;-43
2022/01/16 08:59:03;;;;;;;;;;;20.90;38.70;;;;;;6283134;28;20528;-43
2022/01/16 09:02:04;;;;;;;;;;;20.60;38.60;;;;;;6278438;28;20561;-43
2022/01/16 09:05:06;;;;;;;;;;;20.60;38.50;;;;;;6262840;28;19984;-43
2022/01/16 09:08:08;;;;;;;;;;;20.60;38.40;;;;;;6290914;28;20003;-42
2022/01/16 09:11:09;;;;;;;;;;;20.80;38.80;;;;;;6289631;27;20035;-44
2022/01/16 09:14:11;;;;;;;;;;;20.70;38.50;;;;;;6283177;28;20326;-44
2022/01/16 09:17:12;;;;;;;;;;;20.90;38.60;;;;;;6288361;28;20691;-43
2022/01/16 09:20:14;;;;;;;;;;;20.60;38.50;;;;;;6286986;28;19963;-43
2022/01/16 09:23:15;;;;;;;;;;;20.60;38.30;;;;;;6285549;28;20718;-45
2022/01/16 09:26:17;;;;;;;;;;;21.20;38.60;;;;;;6292664;28;19923;-43
2022/01/16 09:29:19;;;;;;;;;;;21.20;38.60;;;;;;6288429;28;19934;-43
2022/01/16 09:32:20;;;;;;;;;;;20.80;38.20;;;;;;6295672;28;20081;-43
2022/01/16 09:35:22;;;;;;;;;;;21.00;38.40;;;;;;6295624;28;19923;-44
2022/01/16 09:38:23;;;;;;;;;;;21.00;38.40;;;;;;6291649;28;20649;-42
2022/01/16 09:41:25;;;;;;;;;;;20.90;38.10;;;;;;6292296;28;20493;-44
2022/01/16 09:44:28;;;;;;;;;;;20.80;38.10;;;;;;6288834;28;20050;-43
2022/01/16 09:47:29;;;;;;;;;;;21.70;38.60;;;;;;6286447;28;20447;-43
2022/01/16 09:50:31;;;;;;;;;;;20.90;38.10;;;;;;6289846;28;20384;-44
2022/01/16 09:53:32;;;;;;;;;;;21.20;38.20;;;;;;6292745;28;19967;-43
2022/01/16 09:56:34;;;;;;;;;;;21.40;37.80;;;;;;6285445;28;20042;-43
2022/01/16 09:59:40;;;;;;;;;;;21.00;38.00;;;;;;6287704;28;19935;-43
2022/01/16 10:02:42;;;;;;;;;;;20.80;37.80;;;;;;6284091;28;20046;-43
2022/01/16 10:05:43;;;;;;;;;;;20.90;37.90;;;;;;6289287;28;19927;-43
2022/01/16 10:08:45;;;;;;;;;;;21.00;37.90;;;;;;6288449;28;20466;-43
2022/01/16 10:11:55;;;;;;;;;;;21.40;38.00;;;;;;6269531;28;20259;-44
2022/01/16 10:15:20;;;;;;;;;;;21.00;37.70;;;;;;6284334;28;20165;-44
2022/01/16 10:18:32;;;;;;;;;;;21.20;37.70;;;;;;6271109;28;19923;-43
2022/01/16 10:21:34;;;;;;;;;;;21.10;37.60;;;;;;6284233;28;19924;-43
2022/01/16 10:24:39;;;;;;;;;;;21.10;37.60;;;;;;6269370;28;20014;-43
2022/01/16 10:27:41;;;;;;;;;;;21.60;37.80;;;;;;6266000;28;19923;-42
2022/01/16 10:30:44;;;;;;;;;;;21.20;37.60;;;;;;6286017;28;20509;-43
2022/01/16 10:33:45;;;;;;;;;;;21.20;37.70;;;;;;6290994;28;20466;-43
2022/01/16 10:36:47;;;;;;;;;;;21.20;37.80;;;;;;6283918;28;20116;-43
2022/01/16 10:39:52;;;;;;;;;;;21.40;37.70;;;;;;6285244;28;20541;-43
2022/01/16 10:42:55;;;;;;;;;;;21.80;37.80;;;;;;6291131;28;20026;-42
2022/01/16 10:45:58;;;;;;;;;;;21.50;37.70;;;;;;6292492;28;19994;-43
2022/01/16 10:49:20;;;;;;;;;;;21.60;37.80;;;;;;6278229;28;19923;-43
2022/01/16 10:52:21;;;;;;;;;;;21.30;37.50;;;;;;6285586;28;20418;-42
2022/01/16 10:55:24;;;;;;;;;;;21.50;37.60;;;;;;6292368;28;20518;-43
2022/01/16 10:58:27;;;;;;;;;;;22.00;37.80;;;;;;6285822;28;20661;-44
2022/01/16 11:01:29;;;;;;;;;;;21.40;37.40;;;;;;6290750;28;20234;-43
2022/01/16 11:04:30;;;;;;;;;;;21.80;37.80;;;;;;6284912;28;20656;-43
2022/01/16 11:07:32;;;;;;;;;;;21.70;37.50;;;;;;6289403;28;20301;-43
2022/01/16 11:10:34;;;;;;;;;;;21.40;37.50;;;;;;6288934;28;20085;-43
2022/01/16 11:13:36;;;;;;;;;;;21.50;37.30;;;;;;6271317;28;20067;-43
2022/01/16 11:16:38;;;;;;;;;;;21.40;37.30;;;;;;6270164;28;20833;-44
2022/01/16 11:19:40;;;;;;;;;;;21.80;37.40;;;;;;6283220;28;20325;-43
2022/01/16 11:22:57;;;;;;;;;;;21.40;37.20;;;;;;6285092;28;19931;-44
2022/01/16 11:26:00;;;;;;;;;;;21.20;37.00;;;;;;6285266;28;20088;-43
2022/01/16 11:29:01;;;;;;;;;;;21.90;37.20;;;;;;6267301;28;20563;-43
2022/01/16 11:32:04;;;;;;;;;;;22.00;37.50;;;;;;6288386;28;19924;-43
2022/01/16 11:35:05;;;;;;;;;;;21.50;37.20;;;;;;6291643;27;20331;-43
2022/01/16 11:38:07;;;;;;;;;;;21.60;37.10;;;;;;6287933;28;20280;-43
2022/01/16 11:41:11;;;;;;;;;;;21.50;37.10;;;;;;6289888;28;20191;-43
2022/01/16 11:44:21;;;;;;;;;;;21.90;37.20;;;;;;6283583;28;20025;-44
2022/01/16 11:47:23;;;;;;;;;;;21.70;37.10;;;;;;6290108;28;19934;-43
2022/01/16 11:50:33;;;;;;;;;;;21.70;37.20;;;;;;6285178;28;20255;-43
2022/01/16 11:53:48;;;;;;;;;;;21.70;37.10;;;;;;6285821;28;19923;-45
2022/01/16 11:56:53;;;;;;;;;;;21.60;37.00;;;;;;6288328;28;19924;-43
2022/01/16 12:00:06;;;;;;;;;;;21.80;37.00;;;;;;6288836;28;20229;-43
2022/01/16 12:03:28;;;;;;;;;;;21.70;37.10;;;;;;6286901;28;20355;-43
2022/01/16 12:06:31;;;;;;;;;;;21.80;37.00;;;;;;6285352;28;19923;-43
2022/01/16 12:09:48;;;;;;;;;;;21.90;37.20;;;;;;6268765;28;20184;-43
2022/01/16 12:12:49;;;;;;;;;;;21.80;37.00;;;;;;6286724;28;20762;-43
2022/01/16 12:16:09;;;;;;;;;;;21.90;37.20;;;;;;6274615;28;20174;-43
2022/01/16 12:19:26;;;;;;;;;;;22.10;37.10;;;;;;6267356;28;19966;-45
2022/01/16 12:22:39;;;;;;;;;;;21.90;36.90;;;;;;6283321;28;20269;-44
2022/01/16 12:25:42;;;;;;;;;;;21.80;36.90;;;;;;6286029;28;20517;-43
2022/01/16 12:28:46;;;;;;;;;;;22.20;37.20;;;;;;6287349;28;20326;-43
2022/01/16 12:31:47;;;;;;;;;;;22.20;37.10;;;;;;6284099;28;20001;-43
2022/01/16 12:34:48;;;;;;;;;;;21.90;37.10;;;;;;6286925;28;20128;-43
2022/01/16 12:37:50;;;;;;;;;;;21.90;37.00;;;;;;6285651;28;20272;-45
2022/01/16 12:40:59;;;;;;;;;;;22.30;37.20;;;;;;6284022;28;20116;-43
2022/01/16 12:44:01;;;;;;;;;;;22.00;37.00;;;;;;6283002;28;20481;-43
2022/01/16 12:47:06;;;;;;;;;;;22.20;37.00;;;;;;6288448;28;19982;-42
2022/01/16 12:50:14;;;;;;;;;;;22.00;36.90;;;;;;6289000;28;20538;-43
2022/01/16 12:53:30;;;;;;;;;;;22.10;36.90;;;;;;6289110;28;20671;-43
2022/01/16 12:56:34;;;;;;;;;;;21.90;36.80;;;;;;6270178;28;20042;-43
2022/01/16 12:59:36;;;;;;;;;;;22.40;37.00;;;;;;6278544;28;19930;-43
2022/01/16 13:02:38;;;;;;;;;;;22.30;36.80;;;;;;6284944;28;20337;-45
2022/01/16 13:05:39;;;;;;;;;;;22.10;36.90;;;;;;6274382;28;19924;-43
2022/01/16 13:08:50;;;;;;;;;;;21.90;36.90;;;;;;6287891;28;19931;-43
2022/01/16 13:11:52;;;;;;;;;;;22.10;36.70;;;;;;6289958;28;20311;-43
2022/01/16 13:14:57;;;;;;;;;;;22.00;36.80;;;;;;6288133;28;20097;-44
2022/01/16 13:17:59;;;;;;;;;;;22.10;36.90;;;;;;6285608;28;19965;-44
2022/01/16 13:21:04;;;;;;;;;;;22.30;37.10;;;;;;6288066;28;20969;-43
2022/01/16 13:24:05;;;;;;;;;;;22.30;37.00;;;;;;6283412;28;20835;-43
2022/01/16 13:27:08;;;;;;;;;;;21.90;36.90;;;;;;6285575;28;19927;-44
2022/01/16 13:30:13;;;;;;;;;;;22.30;36.90;;;;;;6264968;28;20643;-43
2022/01/16 13:33:15;;;;;;;;;;;22.60;37.10;;;;;;6278185;28;19966;-43
2022/01/16 13:36:19;;;;;;;;;;;22.30;37.00;;;;;;6282385;28;20257;-43
2022/01/16 13:39:35;;;;;;;;;;;22.10;36.80;;;;;;6287951;28;20314;-43
2022/01/16 13:42:50;;;;;;;;;;;22.20;36.90;;;;;;6261808;28;20267;-43
2022/01/16 13:45:51;;;;;;;;;;;22.20;36.90;;;;;;6262852;28;19990;-43
2022/01/16 13:48:59;;;;;;;;;;;22.20;37.00;;;;;;6286322;28;20039;-43
2022/01/16 13:52:01;;;;;;;;;;;22.30;36.90;;;;;;6283759;28;20355;-43
2022/01/16 13:55:03;;;;;;;;;;;22.40;36.90;;;;;;6289538;28;20042;-43
2022/01/16 13:58:12;;;;;;;;;;;22.20;36.80;;;;;;6274318;28;19924;-43
2022/01/16 14:01:14;;;;;;;;;;;22.60;37.20;;;;;;6284352;28;20787;-43
2022/01/16 14:04:16;;;;;;;;;;;22.90;37.30;;;;;;6280724;28;20182;-43
2022/01/16 14:07:20;;;;;;;;;;;22.50;37.30;;;;;;6284707;28;20761;-43
2022/01/16 14:10:36;;;;;;;;;;;22.10;36.80;;;;;;6262187;28;20381;-43
2022/01/16 14:13:46;;;;;;;;;;;22.60;37.10;;;;;;6272442;28;19924;-43
2022/01/16 14:16:50;;;;;;;;;;;22.30;36.90;;;;;;6288283;28;19928;-44
2022/01/16 14:20:22;;;;;;;;;;;22.20;36.90;;;;;;6289321;28;19924;-45
2022/01/16 14:23:23;;;;;;;;;;;22.60;37.20;;;;;;6271943;28;19924;-44
2022/01/16 14:26:24;;;;;;;;;;;22.40;37.30;;;;;;6285154;28;19946;-43
2022/01/16 14:29:26;;;;;;;;;;;22.20;37.10;;;;;;6286991;28;20042;-43
2022/01/16 14:32:29;;;;;;;;;;;22.30;37.00;;;;;;6286172;28;20394;-43
2022/01/16 14:35:30;;;;;;;;;;;22.70;37.20;;;;;;6292634;28;19923;-43
2022/01/16 14:38:31;;;;;;;;;;;22.70;37.30;;;;;;6294558;28;20041;-43
2022/01/16 14:41:35;;;;;;;;;;;22.50;37.20;;;;;;6284678;28;19947;-44
2022/01/16 14:44:38;;;;;;;;;;;22.50;37.20;;;;;;6285862;28;20342;-43
2022/01/16 14:47:40;;;;;;;;;;;22.20;37.10;;;;;;6287713;28;19928;-44
2022/01/16 14:50:42;;;;;;;;;;;22.30;37.20;;;;;;6282809;28;20030;-43
2022/01/16 14:53:43;;;;;;;;;;;22.50;37.20;;;;;;6280874;28;20050;-43
2022/01/16 14:56:44;;;;;;;;;;;22.60;37.30;;;;;;6285236;28;20053;-43
2022/01/16 14:59:47;;;;;;;;;;;22.10;37.10;;;;;;6282856;28;19927;-44
2022/01/16 15:02:50;;;;;;;;;;;22.50;37.30;;;;;;6279548;28;20457;-43
2022/01/16 15:05:51;;;;;;;;;;;22.60;37.20;;;;;;6289136;28;20345;-43
2022/01/16 15:08:54;;;;;;;;;;;22.20;37.10;;;;;;6266881;28;20230;-43
2022/01/16 15:11:55;;;;;;;;;;;22.30;37.20;;;;;;6290132;28;19989;-46
2022/01/16 15:14:57;;;;;;;;;;;22.60;37.40;;;;;;6296368;28;20017;-47
2022/01/16 15:18:00;;;;;;;;;;;22.30;37.20;;;;;;6293132;28;19927;-43
2022/01/16 15:21:03;;;;;;;;;;;22.70;37.40;;;;;;6263617;28;20873;-44
2022/01/16 15:24:05;;;;;;;;;;;22.40;37.30;;;;;;6279213;28;20930;-43
2022/01/16 15:27:07;;;;;;;;;;;22.30;37.70;;;;;;6262868;28;20394;-43
2022/01/16 15:30:13;;;;;;;;;;;22.30;37.10;;;;;;6256677;28;20241;-44
2022/01/16 15:33:15;;;;;;;;;;;22.60;37.30;;;;;;6280232;28;20706;-43
2022/01/16 15:36:17;;;;;;;;;;;22.40;37.30;;;;;;6278216;28;20618;-43
2022/01/16 15:39:18;;;;;;;;;;;22.50;37.40;;;;;;6282618;28;19931;-44
2022/01/16 15:42:20;;;;;;;;;;;22.20;37.30;;;;;;6260813;28;20038;-43
2022/01/16 15:45:21;;;;;;;;;;;22.30;37.40;;;;;;6284605;28;20184;-43
2022/01/16 15:48:23;;;;;;;;;;;22.30;37.20;;;;;;6276960;28;20275;-43
2022/01/16 15:51:24;;;;;;;;;;;22.70;37.40;;;;;;6276946;28;20477;-43
2022/01/16 15:54:46;;;;;;;;;;;22.50;37.40;;;;;;6261808;28;19931;-45
2022/01/16 15:57:49;;;;;;;;;;;22.60;37.40;;;;;;6273253;28;20058;-43
2022/01/16 16:00:51;;;;;;;;;;;22.50;37.40;;;;;;6246541;28;20659;-43
2022/01/16 16:03:53;;;;;;;;;;;22.40;37.40;;;;;;6261137;28;19931;-43
2022/01/16 16:06:54;;;;;;;;;;;22.70;37.60;;;;;;6282605;28;20196;-44
2022/01/16 16:09:57;;;;;;;;;;;22.30;37.50;;;;;;6282085;28;20004;-43
2022/01/16 16:12:58;;;;;;;;;;;22.30;37.50;;;;;;6282462;28;19927;-43
2022/01/16 16:16:00;;;;;;;;;;;22.30;37.50;;;;;;6279281;28;20060;-43
2022/01/16 16:19:02;;;;;;;;;;;22.70;37.80;;;;;;6278146;28;20020;-43
2022/01/16 16:22:03;;;;;;;;;;;22.20;37.30;;;;;;6285446;27;20199;-44
2022/01/16 16:25:05;;;;;;;;;;;22.40;37.50;;;;;;6280003;28;20041;-43
2022/01/16 16:28:07;;;;;;;;;;;22.70;37.50;;;;;;6282321;28;20533;-44
2022/01/16 16:31:09;;;;;;;;;;;22.30;37.40;;;;;;6279405;28;19935;-43
2022/01/16 16:34:11;;;;;;;;;;;22.70;37.80;;;;;;6278078;28;19930;-43
2022/01/16 16:37:14;;;;;;;;;;;22.60;37.60;;;;;;6276090;28;20044;-43
2022/01/16 16:40:15;;;;;;;;;;;22.60;37.60;;;;;;6268252;28;20086;-43
2022/01/16 16:43:17;;;;;;;;;;;22.40;37.50;;;;;;6284277;28;19997;-45
2022/01/16 16:46:19;;;;;;;;;;;22.30;37.70;;;;;;6280995;28;20924;-43
2022/01/16 16:49:21;;;;;;;;;;;22.20;37.50;;;;;;6285190;28;19927;-43
2022/01/16 16:52:22;;;;;;;;;;;22.30;37.60;;;;;;6280275;28;20732;-43
2022/01/16 16:55:23;;;;;;;;;;;22.60;37.80;;;;;;6260659;28;19934;-44
2022/01/16 16:58:25;;;;;;;;;;;22.20;37.70;;;;;;6283435;28;20436;-43
2022/01/16 17:01:27;;;;;;;;;;;22.70;37.90;;;;;;6284347;28;19928;-43
2022/01/16 17:04:28;;;;;;;;;;;22.20;37.70;;;;;;6286886;28;19990;-43
2022/01/16 17:07:30;;;;;;;;;;;22.80;38.00;;;;;;6288620;28;19931;-43
2022/01/16 17:10:31;;;;;;;;;;;22.50;37.70;;;;;;6272764;28;20350;-43
2022/01/16 17:13:33;;;;;;;;;;;22.50;37.90;;;;;;6278224;28;19979;-43
2022/01/16 17:16:35;;;;;;;;;;;22.20;37.70;;;;;;6275702;28;20765;-44
2022/01/16 17:19:39;;;;;;;;;;;22.20;37.80;;;;;;6278978;28;19923;-43
2022/01/16 17:22:40;;;;;;;;;;;22.30;37.80;;;;;;6282406;28;19991;-44
2022/01/16 17:25:42;;;;;;;;;;;22.50;38.00;;;;;;6287066;28;20013;-43
2022/01/16 17:28:43;;;;;;;;;;;22.20;37.80;;;;;;6274167;28;20697;-43
2022/01/16 17:31:45;;;;;;;;;;;22.50;38.20;;;;;;6278726;28;20672;-43
2022/01/16 17:34:46;;;;;;;;;;;22.20;38.00;;;;;;6283922;28;20337;-43
2022/01/16 17:37:48;;;;;;;;;;;22.20;38.20;;;;;;6281944;28;20441;-43
2022/01/16 17:40:49;;;;;;;;;;;22.50;38.40;;;;;;6282522;28;20038;-43
2022/01/16 17:43:51;;;;;;;;;;;22.00;38.20;;;;;;6275438;28;20479;-43
2022/01/16 17:46:53;;;;;;;;;;;22.00;38.40;;;;;;6287138;28;20068;-43
2022/01/16 17:49:54;;;;;;;;;;;22.20;38.60;;;;;;6279115;28;20399;-43
2022/01/16 17:52:56;;;;;;;;;;;21.80;38.50;;;;;;6267214;28;20659;-44
2022/01/16 17:55:57;;;;;;;;;;;22.00;38.60;;;;;;6282082;28;19970;-43
2022/01/16 17:58:59;;;;;;;;;;;21.90;38.80;;;;;;6298091;28;19974;-43
2022/01/16 18:02:01;;;;;;;;;;;21.70;38.60;;;;;;6292465;28;20064;-44
2022/01/16 18:05:03;;;;;;;;;;;21.70;38.80;;;;;;6295791;28;19927;-45
2022/01/16 18:08:05;;;;;;;;;;;22.10;39.00;;;;;;6295692;28;19931;-43
2022/01/16 18:11:06;;;;;;;;;;;22.20;39.30;;;;;;6298545;28;20931;-47
2022/01/16 18:14:07;;;;;;;;;;;21.80;39.10;;;;;;6295028;28;20318;-43
2022/01/16 18:17:09;;;;;;;;;;;21.50;39.00;;;;;;6295610;28;20018;-43
2022/01/16 18:20:11;;;;;;;;;;;21.30;39.00;;;;;;6297130;28;19920;-43